Time;durP1;ratioP1;P1;durP2;ratioP2;P2;SDS_P1;SDS_P2;PMS_P1;PMS_P2;Temp;Humidity;BMP_temperature;BMP_pressure;BME280_temperature;BME280_humidity;BME280_pressure;Samples;Min_cycle;Max_cycle;Signal;HPM_P1;HPM_P2
2023/03/29 00:00:58;;;;;;;;;17.50;17.00;;;;;-147.17;100.00;-13437.75;5055389;28;51054;-49
2023/03/29 00:03:24;;;;;;;;;18.50;14.50;;;;;-147.17;100.00;-13189.88;5055119;28;51184;-49
2023/03/29 00:05:49;;;;;;;;;11.00;11.00;;;;;-147.17;100.00;-12694.06;5053761;28;52312;-50
2023/03/29 00:08:17;;;;;;;;;14.00;12.50;;;;;-147.17;100.00;-12694.06;5052308;28;51169;-48
2023/03/29 00:10:42;;;;;;;;;13.00;13.00;;;;;-147.17;100.00;-12446.13;5053743;28;51246;-47
2023/03/29 00:13:08;;;;;;;;;15.25;12.50;;;;;-147.17;100.00;-12941.97;5031055;28;52770;-47
2023/03/29 00:15:33;;;;;;;;;10.75;10.75;;;;;-147.17;100.00;-12941.97;5052012;28;51146;-47
2023/03/29 00:17:58;;;;;;;;;12.50;12.50;;;;;-147.17;100.00;-12941.97;5048665;28;50925;-48
2023/03/29 00:20:24;;;;;;;;;15.75;13.75;;;;;-147.17;100.00;-12941.97;5053807;28;51075;-51
2023/03/29 00:22:49;;;;;;;;;13.00;12.00;;;;;-147.17;100.00;-13189.88;5054816;28;51332;-50
2023/03/29 00:25:15;;;;;;;;;17.75;17.75;;;;;-147.17;100.00;-13189.88;5035303;28;54089;-49
2023/03/29 00:27:40;;;;;;;;;14.75;13.50;;;;;-147.17;100.00;-13189.88;5053856;28;50859;-51
2023/03/29 00:30:08;;;;;;;;;13.50;13.25;;;;;-147.17;100.00;-13437.75;5032591;28;51300;-50
2023/03/29 00:32:34;;;;;;;;;12.00;12.00;;;;;-147.17;100.00;-13685.63;5034344;28;51047;-48
2023/03/29 00:35:00;;;;;;;;;12.00;12.00;;;;;-147.17;100.00;-13685.63;5044373;28;51846;-47
2023/03/29 00:37:28;;;;;;;;;15.50;15.50;;;;;-147.17;100.00;-13933.50;5045176;28;51397;-49
2023/03/29 00:39:54;;;;;;;;;12.00;11.50;;;;;-147.17;100.00;-13933.50;5049725;28;51165;-48
2023/03/29 00:42:20;;;;;;;;;11.00;10.50;;;;;-147.17;100.00;-13685.63;5051928;28;51286;-48
2023/03/29 00:45:00;;;;;;;;;13.50;13.25;;;;;-147.17;100.00;-13685.63;5034390;28;51200;-48
2023/03/29 00:47:38;;;;;;;;;11.50;8.00;;;;;-147.17;100.00;-13189.88;5053599;28;51102;-48
2023/03/29 00:50:21;;;;;;;;;11.25;11.00;;;;;-147.17;100.00;-12941.97;5032787;28;51218;-47
2023/03/29 00:53:22;;;;;;;;;12.75;12.75;;;;;-147.17;100.00;-12941.97;5052675;28;51226;-48
2023/03/29 00:56:12;;;;;;;;;12.25;11.00;;;;;-147.17;100.00;-12694.06;5025857;28;51985;-49
2023/03/29 00:58:56;;;;;;;;;12.50;11.75;;;;;-147.17;100.00;-12694.06;5051936;28;51105;-47
2023/03/29 01:01:36;;;;;;;;;11.50;10.75;;;;;-147.17;100.00;-12446.13;5052193;28;51061;-50
2023/03/29 01:04:17;;;;;;;;;10.50;10.25;;;;;-147.17;100.00;-12446.13;5052900;28;51379;-48
2023/03/29 01:06:52;;;;;;;;;12.75;11.00;;;;;-147.17;100.00;-12446.13;5052422;28;52111;-50
2023/03/29 01:09:20;;;;;;;;;12.50;11.25;;;;;-147.17;100.00;-12446.13;5045283;28;51000;-47
2023/03/29 01:11:52;;;;;;;;;11.50;10.75;;;;;-147.17;100.00;-12446.13;5042927;28;51371;-51
2023/03/29 01:14:43;;;;;;;;;9.00;7.50;;;;;-147.17;100.00;-11950.22;5051234;28;51005;-50
2023/03/29 01:17:11;;;;;;;;;11.00;11.00;;;;;-147.17;100.00;-11950.22;5048498;28;51218;-48
2023/03/29 01:19:48;;;;;;;;;11.25;10.50;;;;;-147.17;100.00;-11950.22;5052368;28;51182;-48
2023/03/29 01:22:27;;;;;;;;;13.75;13.75;;;;;-147.17;100.00;-11950.22;5048071;28;51175;-46
2023/03/29 01:25:25;;;;;;;;;14.25;13.00;;;;;-147.17;100.00;-12198.19;5049807;28;51138;-48
2023/03/29 01:28:01;;;;;;;;;10.50;10.25;;;;;-147.17;100.00;-12198.19;5050011;28;52260;-51
2023/03/29 01:30:38;;;;;;;;;11.75;10.75;;;;;-147.17;100.00;-11950.22;5049426;28;51036;-52
2023/03/29 01:33:10;;;;;;;;;13.00;12.00;;;;;-147.17;100.00;-12198.19;5051440;28;51090;-46
2023/03/29 01:35:43;;;;;;;;;11.75;10.75;;;;;-147.17;100.00;-12198.19;5033072;28;51164;-49
2023/03/29 01:38:14;;;;;;;;;12.50;11.50;;;;;-147.17;100.00;-12446.13;5042600;28;51174;-49
2023/03/29 01:40:40;;;;;;;;;12.00;11.00;;;;;-147.17;100.00;-12694.06;5051789;28;51038;-48
2023/03/29 01:43:11;;;;;;;;;12.50;12.00;;;;;-147.17;100.00;-12694.06;5045396;28;51092;-50
2023/03/29 01:45:50;;;;;;;;;11.75;11.00;;;;;-147.17;100.00;-12694.06;5053607;28;51180;-47
2023/03/29 01:48:27;;;;;;;;;11.75;11.75;;;;;-147.17;100.00;-12694.06;5049791;28;50954;-46
2023/03/29 01:51:03;;;;;;;;;16.00;16.00;;;;;-147.17;100.00;-12941.97;5050958;28;50994;-48
2023/03/29 01:53:48;;;;;;;;;13.75;12.50;;;;;-147.17;100.00;-12941.97;5046379;28;51114;-50
2023/03/29 01:56:20;;;;;;;;;11.00;11.00;;;;;-147.17;100.00;-13189.88;5052742;28;51089;-49
2023/03/29 01:58:51;;;;;;;;;12.00;10.75;;;;;-147.17;100.00;-13189.88;5050233;28;52334;-51
2023/03/29 02:01:24;;;;;;;;;12.75;11.75;;;;;-147.17;100.00;-13189.88;5050617;28;51158;-47
2023/03/29 02:03:55;;;;;;;;;11.75;10.75;;;;;-147.17;100.00;-13189.88;5051176;28;51145;-48
2023/03/29 02:06:25;;;;;;;;;12.00;12.00;;;;;-147.17;100.00;-12941.97;5050410;28;51031;-49
2023/03/29 02:08:54;;;;;;;;;13.75;11.00;;;;;-147.17;100.00;-13189.88;5050895;28;51883;-49
2023/03/29 02:11:22;;;;;;;;;10.75;10.00;;;;;-147.17;100.00;-13189.88;5049868;28;50996;-49
2023/03/29 02:13:47;;;;;;;;;12.25;12.25;;;;;-147.17;100.00;-13189.88;5050728;28;51046;-49
2023/03/29 02:16:14;;;;;;;;;12.00;11.00;;;;;-147.17;100.00;-13189.88;5050329;28;51351;-50
2023/03/29 02:18:46;;;;;;;;;13.00;10.50;;;;;-147.17;100.00;-12941.97;5051693;28;52286;-49
2023/03/29 02:21:20;;;;;;;;;12.00;12.00;;;;;-147.17;100.00;-12941.97;5049916;28;51224;-49
2023/03/29 02:23:48;;;;;;;;;12.00;12.00;;;;;-147.17;100.00;-13189.88;5050338;28;50973;-47
2023/03/29 02:26:14;;;;;;;;;13.00;13.00;;;;;-147.17;100.00;-13189.88;5050290;28;51198;-48
2023/03/29 02:28:41;;;;;;;;;12.00;11.25;;;;;-147.17;100.00;-13189.88;5049343;28;51128;-48
2023/03/29 02:31:24;;;;;;;;;12.25;11.25;;;;;-147.17;100.00;-13189.88;5049751;28;51031;-47
2023/03/29 02:34:11;;;;;;;;;10.50;9.00;;;;;-147.17;100.00;-12941.97;5044189;28;51204;-50
2023/03/29 02:36:48;;;;;;;;;10.00;9.50;;;;;-147.17;100.00;-12941.97;5048671;28;51286;-48
2023/03/29 02:39:16;;;;;;;;;11.00;11.00;;;;;-147.17;100.00;-12941.97;5036503;28;52338;-49
2023/03/29 02:41:45;;;;;;;;;9.00;9.00;;;;;-147.17;100.00;-12941.97;5049243;28;51342;-48
2023/03/29 02:44:16;;;;;;;;;12.25;12.25;;;;;-147.17;100.00;-12941.97;5049737;28;51149;-47
2023/03/29 02:46:42;;;;;;;;;14.00;12.00;;;;;-147.17;100.00;-13189.88;5042844;28;51354;-48
2023/03/29 02:49:11;;;;;;;;;10.25;10.00;;;;;-147.17;100.00;-13189.88;5045988;28;52796;-48
2023/03/29 02:51:37;;;;;;;;;9.25;9.00;;;;;-147.17;100.00;-13189.88;5043523;28;52737;-47
2023/03/29 02:54:12;;;;;;;;;12.00;12.00;;;;;-147.17;100.00;-13437.75;5051217;28;50877;-48
2023/03/29 02:56:53;;;;;;;;;10.00;10.00;;;;;-147.17;100.00;-13437.75;5046819;28;51235;-49
2023/03/29 02:59:21;;;;;;;;;12.00;11.75;;;;;-147.17;100.00;-13437.75;5044774;28;51663;-49
2023/03/29 03:01:47;;;;;;;;;11.25;10.25;;;;;-147.17;100.00;-13685.63;5049088;28;51245;-48
2023/03/29 03:04:12;;;;;;;;;11.00;10.00;;;;;-147.17;100.00;-13685.63;5049071;28;51272;-50
2023/03/29 03:06:41;;;;;;;;;9.00;7.00;;;;;-147.17;100.00;-13933.50;5049075;28;51311;-50
2023/03/29 03:09:06;;;;;;;;;11.50;10.75;;;;;-147.17;100.00;-13933.50;5029192;28;53310;-48
2023/03/29 03:11:32;;;;;;;;;10.00;9.00;;;;;-147.17;100.00;-13933.50;5049054;28;51129;-51
2023/03/29 03:13:59;;;;;;;;;12.25;11.00;;;;;-147.17;100.00;-13933.50;5047069;28;51039;-46
2023/03/29 03:16:25;;;;;;;;;11.00;11.00;;;;;-147.17;100.00;-14181.31;5051142;28;51480;-49
2023/03/29 03:18:52;;;;;;;;;10.75;10.50;;;;;-147.17;100.00;-14181.31;5050873;28;51176;-47
2023/03/29 03:21:17;;;;;;;;;10.75;10.00;;;;;-147.17;100.00;-14181.31;5048500;28;50990;-49
2023/03/29 03:23:44;;;;;;;;;11.00;11.00;;;;;-147.17;100.00;-14429.16;5050822;28;51160;-47
2023/03/29 03:26:10;;;;;;;;;10.50;10.00;;;;;-147.17;100.00;-14676.94;5049682;28;51360;-50
2023/03/29 03:28:35;;;;;;;;;11.50;11.00;;;;;-147.17;100.00;-14676.94;5049339;28;51381;-50
2023/03/29 03:31:01;;;;;;;;;10.00;9.00;;;;;-147.17;100.00;-14924.75;5049309;28;51010;-50
2023/03/29 03:33:27;;;;;;;;;9.00;9.00;;;;;-147.17;100.00;-14924.75;5048230;28;51115;-48
2023/03/29 03:35:55;;;;;;;;;11.00;9.00;;;;;-147.17;100.00;-14924.75;5044539;28;51261;-47
2023/03/29 03:38:21;;;;;;;;;10.00;10.00;;;;;-147.17;100.00;-14924.75;5049682;28;52883;-50
2023/03/29 03:40:52;;;;;;;;;10.25;9.25;;;;;-147.17;100.00;-15172.50;5050806;28;50909;-47
2023/03/29 03:43:18;;;;;;;;;11.25;10.75;;;;;-147.17;100.00;-15172.50;5050050;28;51300;-50
2023/03/29 03:45:43;;;;;;;;;9.00;9.00;;;;;-147.17;100.00;-15420.25;5049681;28;51289;-49
2023/03/29 03:48:09;;;;;;;;;11.75;10.50;;;;;-147.17;100.00;-15420.25;5049880;28;51160;-50
2023/03/29 03:50:34;;;;;;;;;11.00;11.00;;;;;-147.17;100.00;-15668.00;5047270;28;51253;-49
2023/03/29 03:52:59;;;;;;;;;12.50;9.75;;;;;-147.17;100.00;-15420.25;5031392;28;51021;-48
2023/03/29 03:55:25;;;;;;;;;9.00;9.00;;;;;-147.17;100.00;-15668.00;5048865;28;51037;-48
2023/03/29 03:57:51;;;;;;;;;11.00;10.00;;;;;-147.17;100.00;-15915.72;5050038;28;51150;-48
2023/03/29 04:00:20;;;;;;;;;11.00;11.00;;;;;-147.17;100.00;-15915.72;5045908;28;51262;-47
2023/03/29 04:02:46;;;;;;;;;10.00;9.25;;;;;-147.17;100.00;-15915.72;5048742;28;51324;-48
2023/03/29 04:05:13;;;;;;;;;13.50;11.50;;;;;-147.17;100.00;-15915.72;5045900;28;51287;-48
2023/03/29 04:07:40;;;;;;;;;11.00;10.25;;;;;-147.17;100.00;-15917.19;5044216;28;52380;-48
2023/03/29 04:10:07;;;;;;;;;10.25;10.00;;;;;-147.17;100.00;-15917.19;5046078;28;52545;-51
2023/03/29 04:12:33;;;;;;;;;11.50;11.00;;;;;-147.17;100.00;-15917.19;5026005;28;51228;-50
2023/03/29 04:14:58;;;;;;;;;11.00;10.00;;;;;-147.17;100.00;-15917.19;5052545;28;51145;-48
2023/03/29 04:17:24;;;;;;;;;10.00;10.00;;;;;-147.17;100.00;-15917.19;5050486;28;52081;-49
2023/03/29 04:19:49;;;;;;;;;10.50;10.25;;;;;-147.17;100.00;-15917.19;5050895;28;50866;-48
2023/03/29 04:22:15;;;;;;;;;10.75;10.00;;;;;-147.17;100.00;-15917.19;5050772;28;52796;-48
2023/03/29 04:24:40;;;;;;;;;11.50;10.50;;;;;-147.17;100.00;-15917.19;5050750;28;51004;-50
2023/03/29 04:27:06;;;;;;;;;10.50;10.50;;;;;-147.17;100.00;-15917.19;5030717;28;52992;-50
2023/03/29 04:29:31;;;;;;;;;13.00;12.00;;;;;-147.17;100.00;-15917.19;5049355;28;51415;-47
2023/03/29 04:31:57;;;;;;;;;11.25;10.75;;;;;-147.17;100.00;-15917.19;5016355;28;51267;-50
2023/03/29 04:34:22;;;;;;;;;10.25;10.00;;;;;-147.17;100.00;-15917.19;5047074;28;51379;-48
2023/03/29 04:36:49;;;;;;;;;10.25;9.00;;;;;-147.17;100.00;-15917.19;5053997;28;52509;-47
2023/03/29 04:39:16;;;;;;;;;9.75;9.75;;;;;-147.17;100.00;-15917.19;5056193;28;51068;-48
2023/03/29 04:41:42;;;;;;;;;12.75;11.75;;;;;-147.17;100.00;-15917.19;5035087;28;51379;-51
2023/03/29 04:44:08;;;;;;;;;14.75;13.75;;;;;-147.17;100.00;-15917.19;5052714;28;51080;-46
2023/03/29 04:46:33;;;;;;;;;11.50;11.25;;;;;-147.17;100.00;-15917.19;5053928;28;50984;-43
2023/03/29 04:48:58;;;;;;;;;9.50;9.00;;;;;-147.17;100.00;-15917.19;5051079;28;50888;-41
2023/03/29 04:51:24;;;;;;;;;11.75;10.75;;;;;-147.17;100.00;-15917.19;5045163;28;51526;-44
2023/03/29 04:53:50;;;;;;;;;10.50;10.50;;;;;-147.17;100.00;-15917.19;5041922;28;51375;-43
2023/03/29 04:56:16;;;;;;;;;11.75;10.75;;;;;-147.17;100.00;-15917.19;5053615;28;53065;-42
2023/03/29 04:58:43;;;;;;;;;9.75;9.00;;;;;-147.17;100.00;-15917.19;5053510;28;51104;-44
2023/03/29 05:01:09;;;;;;;;;12.25;9.50;;;;;-147.17;100.00;-15917.19;5052559;28;51069;-45
2023/03/29 05:03:35;;;;;;;;;13.00;12.50;;;;;-147.17;100.00;-15917.19;5053736;28;51161;-43
2023/03/29 05:06:05;;;;;;;;;9.00;9.00;;;;;-147.17;100.00;-15917.19;5050121;28;51160;-43
2023/03/29 05:08:33;;;;;;;;;11.00;11.00;;;;;-147.17;100.00;-15917.19;5046520;28;51092;-48
2023/03/29 05:10:58;;;;;;;;;10.50;9.50;;;;;-147.17;100.00;-15917.19;5045645;28;51096;-44
2023/03/29 05:13:23;;;;;;;;;11.50;10.75;;;;;-147.17;100.00;-15917.19;5052858;28;51364;-44
2023/03/29 05:15:49;;;;;;;;;11.00;9.25;;;;;-147.17;100.00;-15917.19;5049136;28;51149;-44
2023/03/29 05:18:14;;;;;;;;;7.25;7.25;;;;;-147.17;100.00;-15917.19;5033478;28;51021;-44
2023/03/29 05:20:41;;;;;;;;;9.25;7.25;;;;;-147.17;100.00;-15917.19;5051669;28;51222;-44
2023/03/29 05:23:06;;;;;;;;;8.50;8.50;;;;;-147.17;100.00;-15917.19;5051976;28;50935;-43
2023/03/29 05:25:32;;;;;;;;;9.00;9.00;;;;;-147.17;100.00;-15917.19;5051621;28;53567;-44
2023/03/29 05:27:58;;;;;;;;;6.00;6.00;;;;;-147.17;100.00;-15917.19;5054041;28;51073;-43
2023/03/29 05:30:23;;;;;;;;;9.00;8.50;;;;;-147.17;100.00;-15917.19;5054059;28;51038;-44
2023/03/29 05:32:48;;;;;;;;;4.00;4.00;;;;;-147.17;100.00;-15917.19;5054361;28;51260;-43
2023/03/29 05:35:14;;;;;;;;;8.50;8.50;;;;;-147.17;100.00;-15917.19;5043615;28;54018;-43
2023/03/29 05:37:39;;;;;;;;;10.25;9.75;;;;;-147.17;100.00;-15917.19;5044665;28;50999;-43
2023/03/29 05:40:07;;;;;;;;;9.75;8.00;;;;;-147.17;100.00;-15917.19;5053529;28;51056;-41
2023/03/29 05:42:32;;;;;;;;;7.50;7.50;;;;;-147.17;100.00;-15917.19;5056409;28;51103;-42
2023/03/29 05:44:58;;;;;;;;;7.25;7.25;;;;;-147.17;100.00;-15917.19;5050854;28;51749;-43
2023/03/29 05:47:23;;;;;;;;;5.75;4.75;;;;;-147.17;100.00;-15917.19;5052642;28;51223;-42
2023/03/29 05:49:49;;;;;;;;;10.75;9.75;;;;;-147.17;100.00;-15917.19;5052904;28;51099;-48
2023/03/29 05:52:14;;;;;;;;;10.75;10.75;;;;;-147.17;100.00;-15917.19;5042390;28;51392;-42
2023/03/29 05:54:40;;;;;;;;;12.25;10.00;;;;;-147.17;100.00;-15917.19;5030783;28;54385;-44
2023/03/29 05:57:05;;;;;;;;;11.00;10.00;;;;;-147.17;100.00;-15917.19;5051869;28;51145;-43
2023/03/29 05:59:32;;;;;;;;;11.25;10.75;;;;;-147.17;100.00;-15917.19;5048324;28;51398;-43
2023/03/29 06:01:59;;;;;;;;;8.75;8.75;;;;;-147.17;100.00;-15917.19;5036534;28;51449;-44
2023/03/29 06:04:25;;;;;;;;;11.00;8.25;;;;;-147.17;100.00;-15917.19;5032956;28;53154;-43
2023/03/29 06:06:51;;;;;;;;;11.00;10.50;;;;;-147.17;100.00;-15917.19;5051780;28;51196;-43
2023/03/29 06:09:18;;;;;;;;;10.75;10.50;;;;;-147.17;100.00;-15917.19;5042602;28;51241;-43
2023/03/29 06:11:43;;;;;;;;;10.75;9.75;;;;;-147.17;100.00;-15917.19;5034417;28;51427;-43
2023/03/29 06:14:09;;;;;;;;;9.50;7.50;;;;;-147.17;100.00;-15917.19;5051425;28;51119;-45
2023/03/29 06:16:35;;;;;;;;;10.00;10.00;;;;;-147.17;100.00;-15917.19;5051190;28;51156;-44
2023/03/29 06:19:00;;;;;;;;;11.25;9.75;;;;;-147.17;100.00;-15917.19;5051398;28;51074;-41
2023/03/29 06:21:27;;;;;;;;;11.25;11.25;;;;;-147.17;100.00;-15917.19;5044285;28;51351;-43
2023/03/29 06:23:52;;;;;;;;;9.75;9.75;;;;;-147.17;100.00;-15917.19;5049754;28;52022;-41
2023/03/29 06:26:17;;;;;;;;;9.75;9.00;;;;;-147.17;100.00;-15917.19;5050846;28;51373;-42
2023/03/29 06:28:43;;;;;;;;;7.00;6.75;;;;;-147.17;100.00;-15917.19;5052636;28;50874;-42
2023/03/29 06:31:09;;;;;;;;;13.75;11.75;;;;;-147.17;100.00;-15917.19;5052174;28;51011;-43
2023/03/29 06:33:36;;;;;;;;;12.00;10.25;;;;;-147.17;100.00;-15917.19;5052127;28;52397;-42
2023/03/29 06:36:02;;;;;;;;;11.50;11.50;;;;;-147.17;100.00;-15917.19;5052129;28;51033;-42
2023/03/29 06:38:27;;;;;;;;;11.00;10.25;;;;;-147.17;100.00;-15917.19;5052140;28;51287;-43
2023/03/29 06:41:03;;;;;;;;;11.25;10.50;;;;;-147.17;100.00;-15917.19;5052377;28;51202;-42
2023/03/29 06:43:28;;;;;;;;;10.50;10.25;;;;;-147.17;100.00;-15917.19;5041084;28;52959;-41
2023/03/29 06:45:54;;;;;;;;;10.00;9.75;;;;;-147.17;100.00;-15917.19;5052448;28;51118;-41
2023/03/29 06:48:20;;;;;;;;;12.25;10.50;;;;;-147.17;100.00;-15917.19;5052442;28;51087;-42
2023/03/29 06:50:47;;;;;;;;;11.00;10.00;;;;;-147.17;100.00;-15917.19;5052330;28;51125;-42
2023/03/29 06:53:12;;;;;;;;;13.00;12.50;;;;;-147.17;100.00;-15917.19;5034046;28;52687;-43
2023/03/29 06:55:37;;;;;;;;;11.00;10.00;;;;;-147.17;100.00;-15917.19;5052098;28;51093;-42
2023/03/29 06:58:03;;;;;;;;;12.00;11.00;;;;;-147.17;100.00;-15917.19;5033953;28;51118;-42
2023/03/29 07:00:29;;;;;;;;;12.00;12.00;;;;;-147.17;100.00;-15917.19;5043684;28;51353;-42
2023/03/29 07:02:57;;;;;;;;;13.00;13.00;;;;;-147.17;100.00;-15917.19;5051788;28;50996;-42
2023/03/29 07:05:26;;;;;;;;;9.50;9.50;;;;;-147.17;100.00;-15917.19;5052431;28;51170;-42
2023/03/29 07:10:38;;;;;;;;;14.75;13.25;;;;;-147.17;100.00;-15917.19;5038820;28;51258;-42
2023/03/29 07:13:12;;;;;;;;;10.75;10.75;;;;;-147.17;100.00;-15917.19;5051255;28;51245;-42
2023/03/29 07:15:38;;;;;;;;;12.75;11.75;;;;;-147.17;100.00;-15917.19;5034617;28;51052;-41
2023/03/29 07:18:04;;;;;;;;;12.75;12.75;;;;;-147.17;100.00;-15917.19;5051339;28;50910;-41
2023/03/29 07:20:30;;;;;;;;;10.50;10.25;;;;;-147.17;100.00;-15917.19;5052060;28;51003;-42
2023/03/29 07:22:56;;;;;;;;;12.75;10.25;;;;;-147.17;100.00;-15917.19;5051742;28;52566;-42
2023/03/29 07:25:23;;;;;;;;;15.00;14.50;;;;;-147.17;100.00;-15917.19;5051203;28;50881;-42
2023/03/29 07:27:50;;;;;;;;;13.00;12.50;;;;;-147.17;100.00;-15917.19;5051805;28;51080;-42
2023/03/29 07:30:22;;;;;;;;;13.00;11.25;;;;;-147.17;100.00;-15917.19;5052216;28;51089;-41
2023/03/29 07:32:51;;;;;;;;;15.25;11.25;;;;;-147.17;100.00;-15917.19;5035569;28;51873;-42
2023/03/29 07:35:17;;;;;;;;;11.50;11.50;;;;;-147.17;100.00;-15917.19;5044806;28;51022;-43
2023/03/29 07:37:43;;;;;;;;;18.50;16.50;;;;;-147.17;100.00;-15917.19;5046792;28;51010;-43
2023/03/29 07:40:17;;;;;;;;;12.50;10.50;;;;;-147.17;100.00;-15917.19;5051513;28;51368;-42
2023/03/29 07:42:46;;;;;;;;;11.75;10.75;;;;;-147.17;100.00;-15917.19;5050990;28;51070;-42
2023/03/29 07:45:15;;;;;;;;;10.25;10.25;;;;;-147.17;100.00;-15917.19;5034482;28;50943;-43
2023/03/29 07:47:45;;;;;;;;;10.75;10.75;;;;;-147.17;100.00;-15917.19;5054897;28;51160;-43
2023/03/29 07:50:10;;;;;;;;;12.25;12.00;;;;;-147.17;100.00;-15917.19;5055238;28;51145;-42
2023/03/29 07:52:37;;;;;;;;;19.50;18.75;;;;;-147.17;100.00;-15917.19;5051789;28;51339;-42
2023/03/29 07:55:04;;;;;;;;;10.67;10.33;;;;;-147.17;100.00;-15917.19;5054907;28;51308;-41
2023/03/29 07:57:33;;;;;;;;;12.25;11.50;;;;;-147.17;100.00;-15917.19;5054088;28;51291;-41
2023/03/29 07:59:58;;;;;;;;;13.25;12.50;;;;;-147.17;100.00;-15668.00;5050769;28;51090;-41
2023/03/29 08:02:24;;;;;;;;;12.67;12.67;;;;;-147.17;100.00;-15420.25;5053899;28;51051;-42
2023/03/29 08:04:50;;;;;;;;;11.33;9.33;;;;;-147.17;100.00;-14924.75;5054626;28;51083;-42
2023/03/29 08:07:18;;;;;;;;;10.67;10.67;;;;;-147.17;100.00;-13685.63;5054236;28;51237;-41
2023/03/29 08:09:44;;;;;;;;;12.75;11.50;;;;;-147.17;100.00;-13933.50;5055237;28;51118;-41
2023/03/29 08:12:09;;;;;;;;;13.33;11.00;;;;;-147.17;100.00;-13437.75;5053021;28;51141;-42
2023/03/29 08:14:35;;;;;;;;;13.75;12.75;;;;;-147.17;100.00;-12941.97;5054501;28;51090;-41
2023/03/29 08:17:01;;;;;;;;;9.75;9.75;;;;;-147.17;100.00;-13437.75;5053658;28;51168;-41
2023/03/29 08:19:26;;;;;;;;;11.75;11.75;;;;;-147.17;100.00;-12198.19;5050457;28;51230;-43
2023/03/29 08:21:52;;;;;;;;;12.25;12.25;;;;;-147.17;100.00;-12941.97;5029841;28;52022;-42
2023/03/29 08:24:18;;;;;;;;;13.00;11.75;;;;;-147.17;100.00;-13437.75;5053453;28;51226;-42
2023/03/29 08:26:43;;;;;;;;;15.50;13.50;;;;;-147.17;100.00;-13437.75;5052089;28;51157;-41
2023/03/29 08:29:10;;;;;;;;;12.50;11.75;;;;;-147.17;100.00;-13189.88;5054883;28;51043;-41
2023/03/29 08:31:37;;;;;;;;;11.00;11.00;;;;;-147.17;100.00;-13437.75;5054995;28;51102;-41
2023/03/29 08:34:03;;;;;;;;;12.00;11.00;;;;;-147.17;100.00;-12941.97;5055069;28;51263;-42
2023/03/29 08:36:29;;;;;;;;;11.75;11.00;;;;;-147.17;100.00;-13685.63;5043282;28;51196;-41
2023/03/29 08:38:55;;;;;;;;;9.00;8.67;;;;;-147.17;100.00;-14429.16;5054348;28;51067;-41
2023/03/29 08:41:32;;;;;;;;;10.00;10.00;;;;;-147.17;100.00;-14676.94;5054358;28;51277;-42
2023/03/29 08:44:10;;;;;;;;;12.75;11.50;;;;;-147.17;100.00;-15420.25;5054568;28;50934;-41
2023/03/29 08:46:53;;;;;;;;;12.67;10.00;;;;;-147.17;100.00;-15668.00;5054456;28;51185;-43
2023/03/29 08:49:20;;;;;;;;;7.33;7.33;;;;;-147.17;100.00;-15915.72;5053449;28;51057;-42
2023/03/29 08:51:50;;;;;;;;;6.67;6.67;;;;;-147.17;100.00;-15917.19;5051680;28;52272;-41
2023/03/29 08:54:23;;;;;;;;;11.00;10.67;;;;;-147.17;100.00;-15917.19;5035558;28;51101;-41
2023/03/29 08:56:51;;;;;;;;;9.67;9.00;;;;;-147.17;100.00;-15915.72;5052406;28;51139;-42
2023/03/29 08:59:22;;;;;;;;;11.00;10.00;;;;;-147.17;100.00;-15915.72;5047370;28;51113;-42
2023/03/29 09:01:51;;;;;;;;;9.00;8.33;;;;;-147.17;100.00;-15915.72;5040377;28;51022;-42
2023/03/29 09:04:24;;;;;;;;;10.67;10.33;;;;;-147.17;100.00;-15420.25;5053586;28;51014;-41
2023/03/29 09:06:49;;;;;;;;;9.33;8.67;;;;;-147.17;100.00;-15420.25;5053680;28;51174;-42
2023/03/29 09:09:22;;;;;;;;;6.67;6.67;;;;;-147.17;100.00;-14181.31;5052902;28;51132;-41
2023/03/29 09:11:47;;;;;;;;;9.33;8.33;;;;;-147.17;100.00;-14181.31;5049406;28;52197;-41
2023/03/29 09:14:16;;;;;;;;;6.00;6.00;;;;;-147.17;100.00;-12694.06;5053029;28;51142;-43
2023/03/29 09:16:45;;;;;;;;;8.00;7.00;;;;;-147.17;100.00;-12446.13;5053474;28;50951;-42
2023/03/29 09:19:32;;;;;;;;;5.67;5.67;;;;;-147.17;100.00;-12941.97;5052866;28;51205;-42
2023/03/29 09:22:04;;;;;;;;;6.00;6.00;;;;;-147.17;100.00;-12198.19;5052675;28;51889;-42
2023/03/29 09:24:44;;;;;;;;;7.00;7.00;;;;;-147.17;100.00;-11206.22;5051082;28;51186;-42
2023/03/29 09:27:13;;;;;;;;;7.33;7.33;;;;;-147.17;100.00;-10462.09;5044614;28;51173;-43
2023/03/29 09:29:59;;;;;;;;;7.67;6.67;;;;;-147.17;100.00;-10214.00;5053023;28;51120;-42
2023/03/29 09:32:31;;;;;;;;;7.33;7.00;;;;;-147.17;100.00;-9469.69;5052778;28;51861;-42
2023/03/29 09:35:05;;;;;;;;;7.67;6.67;;;;;-147.17;100.00;-10214.00;5053443;28;51161;-43
2023/03/29 09:37:33;;;;;;;;;5.00;5.00;;;;;-147.17;100.00;-10214.00;5051618;28;51112;-42
2023/03/29 09:40:01;;;;;;;;;6.00;6.00;;;;;-147.17;100.00;-10214.00;5026517;28;51453;-42
2023/03/29 09:42:29;;;;;;;;;8.00;7.67;;;;;-147.17;100.00;-9717.81;5034295;28;51114;-42
2023/03/29 09:45:02;;;;;;;;;7.67;6.67;;;;;-147.17;100.00;-8973.38;5052879;28;51057;-43
2023/03/29 09:47:50;;;;;;;;;7.33;7.00;;;;;-147.17;100.00;-9221.53;5047853;28;51257;-42
2023/03/29 09:50:19;;;;;;;;;7.00;7.00;;;;;-147.17;100.00;-9469.69;5046114;28;51377;-43
2023/03/29 09:52:45;;;;;;;;;5.33;5.00;;;;;-147.17;100.00;-9965.91;5049429;28;51160;-43
2023/03/29 09:55:16;;;;;;;;;11.00;10.67;;;;;-147.17;100.00;-10214.00;5047802;28;51194;-42
2023/03/29 09:57:42;;;;;;;;;5.00;5.00;;;;;-147.17;100.00;-9717.81;5052457;28;51024;-42
2023/03/29 10:00:10;;;;;;;;;7.67;7.67;;;;;-147.17;100.00;-10462.09;5042064;28;51035;-43
2023/03/29 10:02:36;;;;;;;;;7.00;4.67;;;;;-147.17;100.00;-9965.91;5046829;28;51851;-42
2023/03/29 10:05:08;;;;;;;;;2.67;2.67;;;;;-147.17;100.00;-10214.00;5044018;28;51143;-42
2023/03/29 10:07:56;;;;;;;;;8.33;7.33;;;;;-147.17;100.00;-9221.53;5044628;28;51099;-42
2023/03/29 10:10:34;;;;;;;;;4.67;4.00;;;;;-147.17;100.00;-7732.34;5047970;28;51219;-42
2023/03/29 10:13:13;;;;;;;;;5.00;4.00;;;;;-147.17;100.00;-9221.53;5025802;28;52566;-41
2023/03/29 10:15:39;;;;;;;;;2.00;1.00;;;;;-147.17;100.00;-8477.03;5051427;28;51101;-43
2023/03/29 10:18:09;;;;;;;;;6.00;6.00;;;;;-147.17;100.00;-8228.81;5050889;28;51732;-43
2023/03/29 10:20:37;;;;;;;;;5.00;4.00;;;;;-147.17;100.00;-6490.94;5044804;28;51219;-43
2023/03/29 10:23:06;;;;;;;;;6.00;5.67;;;;;-147.17;100.00;-3509.84;5039373;28;51170;-42
2023/03/29 10:25:36;;;;;;;;;6.00;5.00;;;;;-147.17;100.00;-2018.47;5032918;28;51000;-42
2023/03/29 10:28:15;;;;;;;;;5.00;5.00;;;;;-147.17;100.00;-2018.47;5051090;28;51010;-41
2023/03/29 10:30:41;;;;;;;;;7.00;7.00;;;;;-147.17;100.00;-1769.84;5050830;28;51296;-43
2023/03/29 10:33:16;;;;;;;;;5.00;5.00;;;;;-147.17;100.00;-775.19;5049477;28;53007;-42
2023/03/29 10:35:42;;;;;;;;;6.67;5.33;;;;;-147.17;100.00;717.28;5050678;28;51112;-41
2023/03/29 10:38:13;;;;;;;;;5.00;5.00;;;;;-147.17;100.00;1463.72;5049665;28;51316;-42
2023/03/29 10:40:50;;;;;;;;;5.33;5.00;;;;;-147.17;100.00;8437.53;5051426;28;51144;-42
2023/03/29 10:43:15;;;;;;;;;7.00;6.00;;;;;-147.17;100.00;5945.44;5041620;28;53441;-42
2023/03/29 10:45:41;;;;;;;;;6.33;6.00;;;;;-147.17;100.00;8936.16;5042500;28;54466;-44
2023/03/29 10:48:15;;;;;;;;;7.00;7.00;;;;;-147.17;100.00;11430.19;5051344;28;51297;-42
2023/03/29 10:50:41;;;;;;;;;5.00;5.00;;;;;-147.17;100.00;12677.78;5031721;28;51281;-43
2023/03/29 10:53:21;;;;;;;;;6.00;5.00;;;;;-147.17;100.00;13426.53;5051294;28;51973;-42
2023/03/29 10:56:19;;;;;;;;;5.00;5.00;;;;;-147.17;100.00;13426.53;5051124;28;51051;-42
2023/03/29 10:59:02;;;;;;;;;6.00;4.67;;;;;-147.17;100.00;14425.13;5046904;28;51010;-42
2023/03/29 11:01:36;;;;;;;;;5.00;5.00;;;;;-147.17;100.00;16922.66;5051735;28;50979;-42
2023/03/29 11:04:37;;;;;;;;;4.67;4.67;;;;;-147.17;100.00;20922.09;5051060;28;52278;-41